UAL2235 KMSY-KEWR
Flight info
| Callsign | UAL2235 |
|---|---|
| Flight time | 2h 18m |
| Altitude | 39000 |
| Route | CATLN Q22 UMBRE QUART PHLBO4 |
| Aircraft | A319/M-SDE3FGHIRWY/LB1 |
Departure
| Time | 2026-05-07 21:27 |
|---|---|
| Airport | Louis Armstrong New Orleans International Airport (KMSY) |
Arrival
| Time | 2026-05-07 23:45 |
|---|---|
| Airport | Newark Liberty International Airport (KEWR) |
| Time | Latitude | Longitude | Altitude | Speed | Heading |
|---|---|---|---|---|---|
| 2026-05-07 21:09 | 29.99359 | -90.25438 | 11 ft | 0 kts | 91° |
| 2026-05-07 21:18 | 29.99359 | -90.25441 | 11 ft | 2 kts | 91° |
| 2026-05-07 21:18 | 29.99359 | -90.25458 | 11 ft | 2 kts | 90° |
| 2026-05-07 21:19 | 29.99359 | -90.25475 | 11 ft | 2 kts | 90° |
| 2026-05-07 21:19 | 29.99362 | -90.25492 | 11 ft | 2 kts | 122° |
| 2026-05-07 21:19 | 29.99373 | -90.25505 | 11 ft | 2 kts | 150° |
| 2026-05-07 21:19 | 29.99386 | -90.25510 | 11 ft | 1 kts | 177° |
| 2026-05-07 21:20 | 29.99393 | -90.25510 | 11 ft | 1 kts | 186° |
| 2026-05-07 21:20 | 29.99395 | -90.25510 | 11 ft | 0 kts | 183° |
| 2026-05-07 21:24 | 29.99297 | -90.25517 | 11 ft | 13 kts | 183° |
| 2026-05-07 21:24 | 29.99230 | -90.25520 | 11 ft | 7 kts | 165° |
| 2026-05-07 21:25 | 29.99201 | -90.25463 | 11 ft | 9 kts | 96° |
| 2026-05-07 21:25 | 29.99198 | -90.25378 | 11 ft | 12 kts | 88° |
| 2026-05-07 21:25 | 29.99194 | -90.25267 | 11 ft | 15 kts | 98° |
| 2026-05-07 21:25 | 29.99183 | -90.25131 | 11 ft | 18 kts | 95° |
| 2026-05-07 21:26 | 29.99129 | -90.25070 | 11 ft | 11 kts | 195° |
| 2026-05-07 21:26 | 29.99038 | -90.25101 | 11 ft | 15 kts | 198° |
| 2026-05-07 21:26 | 29.98940 | -90.25156 | 11 ft | 16 kts | 262° |
| 2026-05-07 21:26 | 29.99000 | -90.25420 | 12 ft | 68 kts | 284° |
| 2026-05-07 21:27 | 29.99195 | -90.26230 | 12 ft | 139 kts | 286° |
| 2026-05-07 21:27 | 29.99485 | -90.27477 | 264 ft | 175 kts | 285° |
| 2026-05-07 21:27 | 29.99791 | -90.28910 | 817 ft | 192 kts | 284° |
| 2026-05-07 21:27 | 30.00226 | -90.30356 | 1645 ft | 195 kts | 302° |
| 2026-05-07 21:28 | 30.01140 | -90.31486 | 2475 ft | 194 kts | 328° |
| 2026-05-07 21:28 | 30.02475 | -90.31940 | 2991 ft | 210 kts | 353° |
| 2026-05-07 21:28 | 30.04001 | -90.32013 | 3432 ft | 231 kts | 358° |
| 2026-05-07 21:28 | 30.05673 | -90.32012 | 3908 ft | 253 kts | 359° |
| 2026-05-07 21:29 | 30.07461 | -90.31657 | 4501 ft | 273 kts | 22° |
| 2026-05-07 21:29 | 30.08944 | -90.30299 | 5357 ft | 283 kts | 52° |
| 2026-05-07 21:29 | 30.09961 | -90.28349 | 6256 ft | 288 kts | 60° |
| 2026-05-07 21:29 | 30.10918 | -90.26296 | 7082 ft | 296 kts | 60° |
| 2026-05-07 21:30 | 30.11898 | -90.24175 | 7951 ft | 301 kts | 61° |
| 2026-05-07 21:30 | 30.12876 | -90.22060 | 8782 ft | 306 kts | 60° |
| 2026-05-07 21:30 | 30.13874 | -90.19896 | 9582 ft | 310 kts | 60° |
| 2026-05-07 21:30 | 30.14899 | -90.17673 | 10326 ft | 316 kts | 60° |
| 2026-05-07 21:31 | 30.15957 | -90.15384 | 10822 ft | 332 kts | 60° |
| 2026-05-07 21:31 | 30.17060 | -90.12998 | 11445 ft | 341 kts | 60° |
| 2026-05-07 21:31 | 30.18184 | -90.10561 | 12177 ft | 346 kts | 60° |
| 2026-05-07 21:31 | 30.19314 | -90.08106 | 12894 ft | 350 kts | 60° |
| 2026-05-07 21:32 | 30.20455 | -90.05632 | 13554 ft | 355 kts | 60° |
| 2026-05-07 21:32 | 30.21621 | -90.03099 | 14227 ft | 361 kts | 60° |
| 2026-05-07 21:32 | 30.22808 | -90.00519 | 14882 ft | 366 kts | 60° |
| 2026-05-07 21:32 | 30.24002 | -89.97920 | 15473 ft | 372 kts | 61° |
| 2026-05-07 21:33 | 30.25242 | -89.95218 | 16065 ft | 379 kts | 60° |
| 2026-05-07 21:33 | 30.26473 | -89.92532 | 16646 ft | 385 kts | 60° |
| 2026-05-07 21:33 | 30.27747 | -89.89757 | 17229 ft | 391 kts | 60° |
| 2026-05-07 21:33 | 30.29026 | -89.86968 | 17866 ft | 394 kts | 60° |
| 2026-05-07 21:34 | 30.30307 | -89.84171 | 18456 ft | 398 kts | 60° |
| 2026-05-07 21:34 | 30.31631 | -89.81271 | 19080 ft | 402 kts | 60° |
| 2026-05-07 21:34 | 30.32936 | -89.78416 | 19681 ft | 406 kts | 60° |
| 2026-05-07 21:34 | 30.34273 | -89.75482 | 20256 ft | 410 kts | 60° |
| 2026-05-07 21:35 | 30.35614 | -89.72549 | 20802 ft | 415 kts | 60° |
| 2026-05-07 21:35 | 30.36985 | -89.69547 | 21359 ft | 419 kts | 59° |
| 2026-05-07 21:35 | 30.38345 | -89.66565 | 21973 ft | 421 kts | 59° |
| 2026-05-07 21:35 | 30.39706 | -89.63574 | 22572 ft | 423 kts | 59° |
| 2026-05-07 21:36 | 30.41088 | -89.60538 | 23110 ft | 426 kts | 59° |
| 2026-05-07 21:36 | 30.42490 | -89.57460 | 23635 ft | 430 kts | 59° |
| 2026-05-07 21:36 | 30.43887 | -89.54395 | 24153 ft | 434 kts | 59° |
| 2026-05-07 21:36 | 30.45303 | -89.51279 | 24649 ft | 438 kts | 59° |
| 2026-05-07 21:37 | 30.46729 | -89.48140 | 25156 ft | 442 kts | 58° |
| 2026-05-07 21:37 | 30.48181 | -89.44940 | 25652 ft | 445 kts | 59° |
| 2026-05-07 21:37 | 30.49646 | -89.41706 | 26145 ft | 449 kts | 59° |
| 2026-05-07 21:37 | 30.51125 | -89.38438 | 26627 ft | 453 kts | 59° |
| 2026-05-07 21:38 | 30.52600 | -89.35174 | 27074 ft | 457 kts | 59° |
| 2026-05-07 21:38 | 30.54077 | -89.31895 | 27503 ft | 461 kts | 59° |
| 2026-05-07 21:38 | 30.55588 | -89.28532 | 27959 ft | 464 kts | 59° |
| 2026-05-07 21:38 | 30.57071 | -89.25230 | 28395 ft | 467 kts | 59° |
| 2026-05-07 21:39 | 30.58591 | -89.21851 | 28786 ft | 471 kts | 59° |
| 2026-05-07 21:39 | 30.60113 | -89.18468 | 29188 ft | 474 kts | 59° |
| 2026-05-07 21:39 | 30.61659 | -89.15036 | 29591 ft | 477 kts | 60° |
| 2026-05-07 21:39 | 30.63196 | -89.11612 | 29978 ft | 481 kts | 59° |
| 2026-05-07 21:40 | 30.64754 | -89.08148 | 30326 ft | 485 kts | 59° |
| 2026-05-07 21:40 | 30.66318 | -89.04657 | 30681 ft | 488 kts | 59° |
| 2026-05-07 21:40 | 30.67913 | -89.01102 | 31042 ft | 492 kts | 60° |
| 2026-05-07 21:40 | 30.69491 | -88.97584 | 31377 ft | 495 kts | 60° |
| 2026-05-07 21:41 | 30.71090 | -88.94006 | 31725 ft | 498 kts | 60° |
| 2026-05-07 21:41 | 30.72692 | -88.90418 | 32058 ft | 501 kts | 60° |
| 2026-05-07 21:41 | 30.74290 | -88.86835 | 32367 ft | 505 kts | 60° |
| 2026-05-07 21:41 | 30.75917 | -88.83185 | 32696 ft | 508 kts | 60° |
| 2026-05-07 21:42 | 30.77528 | -88.79569 | 33017 ft | 510 kts | 60° |
| 2026-05-07 21:42 | 30.79164 | -88.75890 | 33409 ft | 513 kts | 60° |
| 2026-05-07 21:42 | 30.80801 | -88.72212 | 33835 ft | 514 kts | 60° |
| 2026-05-07 21:42 | 30.82443 | -88.68510 | 34353 ft | 512 kts | 60° |
| 2026-05-07 21:43 | 30.84059 | -88.64865 | 34886 ft | 511 kts | 60° |
| 2026-05-07 21:43 | 30.85670 | -88.61231 | 35387 ft | 509 kts | 60° |
| 2026-05-07 21:43 | 30.87299 | -88.57546 | 35889 ft | 507 kts | 60° |
| 2026-05-07 21:43 | 30.88911 | -88.53902 | 36336 ft | 506 kts | 59° |
| 2026-05-07 21:44 | 30.90495 | -88.50317 | 36686 ft | 507 kts | 59° |
| 2026-05-07 21:44 | 30.92124 | -88.46632 | 37031 ft | 507 kts | 59° |
| 2026-05-07 21:44 | 30.93732 | -88.42992 | 37344 ft | 508 kts | 59° |
| 2026-05-07 21:44 | 30.95347 | -88.39327 | 37628 ft | 509 kts | 59° |
| 2026-05-07 21:45 | 30.96954 | -88.35675 | 37890 ft | 511 kts | 59° |
| 2026-05-07 21:45 | 30.98570 | -88.31989 | 38147 ft | 511 kts | 60° |
| 2026-05-07 21:45 | 31.00175 | -88.28326 | 38373 ft | 513 kts | 60° |
| 2026-05-07 21:45 | 31.01797 | -88.24619 | 38566 ft | 514 kts | 60° |
| 2026-05-07 21:46 | 31.03432 | -88.20877 | 38776 ft | 515 kts | 59° |
| 2026-05-07 21:46 | 31.05044 | -88.17192 | 38983 ft | 516 kts | 59° |
| 2026-05-07 21:46 | 31.08307 | -88.09740 | 38993 ft | 518 kts | 59° |
| 2026-05-07 21:47 | 31.11575 | -88.02277 | 38995 ft | 518 kts | 59° |
| 2026-05-07 21:47 | 31.14875 | -87.94772 | 38995 ft | 518 kts | 59° |
| 2026-05-07 21:48 | 31.18133 | -87.87295 | 38997 ft | 519 kts | 59° |
| 2026-05-07 21:48 | 31.21363 | -87.79841 | 38997 ft | 518 kts | 59° |
| 2026-05-07 21:49 | 31.24612 | -87.72321 | 38997 ft | 518 kts | 59° |
| 2026-05-07 21:49 | 31.27831 | -87.64858 | 38997 ft | 517 kts | 59° |
| 2026-05-07 21:50 | 31.31389 | -87.57637 | 38997 ft | 511 kts | 50° |
| 2026-05-07 21:50 | 31.35692 | -87.51090 | 39001 ft | 507 kts | 43° |
| 2026-05-07 21:51 | 31.40284 | -87.44817 | 39001 ft | 506 kts | 43° |
| 2026-05-07 21:51 | 31.44826 | -87.38586 | 39002 ft | 507 kts | 43° |
| 2026-05-07 21:52 | 31.49376 | -87.32272 | 38999 ft | 508 kts | 44° |
| 2026-05-07 21:52 | 31.53912 | -87.25919 | 39001 ft | 509 kts | 44° |
| 2026-05-07 21:53 | 31.58450 | -87.19565 | 39002 ft | 508 kts | 44° |
| 2026-05-07 21:53 | 31.62959 | -87.13261 | 39003 ft | 509 kts | 43° |
| 2026-05-07 21:54 | 31.67502 | -87.06901 | 39004 ft | 509 kts | 43° |
| 2026-05-07 21:54 | 31.72063 | -87.00506 | 39005 ft | 509 kts | 43° |
| 2026-05-07 21:55 | 31.76601 | -86.94136 | 39004 ft | 509 kts | 43° |
| 2026-05-07 21:55 | 31.81122 | -86.87779 | 39003 ft | 512 kts | 43° |
| 2026-05-07 21:56 | 31.85702 | -86.81323 | 39002 ft | 511 kts | 43° |
| 2026-05-07 21:56 | 31.90214 | -86.74947 | 39002 ft | 511 kts | 43° |
| 2026-05-07 21:57 | 31.94751 | -86.68534 | 39005 ft | 512 kts | 43° |
| 2026-05-07 21:57 | 31.99292 | -86.62099 | 39002 ft | 511 kts | 43° |
| 2026-05-07 21:58 | 32.03848 | -86.55638 | 38998 ft | 511 kts | 43° |
| 2026-05-07 21:58 | 32.08395 | -86.49177 | 38995 ft | 512 kts | 43° |
| 2026-05-07 21:59 | 32.12944 | -86.42718 | 38991 ft | 512 kts | 42° |
| 2026-05-07 21:59 | 32.17491 | -86.36268 | 38994 ft | 512 kts | 43° |
| 2026-05-07 22:00 | 32.22001 | -86.29825 | 38993 ft | 514 kts | 44° |
| 2026-05-07 22:00 | 32.26547 | -86.23287 | 38992 ft | 515 kts | 43° |
| 2026-05-07 22:01 | 32.31084 | -86.16766 | 38989 ft | 514 kts | 43° |
| 2026-05-07 22:01 | 32.35614 | -86.10261 | 38983 ft | 513 kts | 43° |
| 2026-05-07 22:02 | 32.40125 | -86.03777 | 38982 ft | 515 kts | 43° |
| 2026-05-07 22:02 | 32.44672 | -85.97224 | 38985 ft | 515 kts | 43° |
| 2026-05-07 22:03 | 32.49199 | -85.90687 | 38984 ft | 515 kts | 43° |
| 2026-05-07 22:03 | 32.53756 | -85.84096 | 38985 ft | 515 kts | 43° |
| 2026-05-07 22:04 | 32.58274 | -85.77555 | 38983 ft | 515 kts | 43° |
| 2026-05-07 22:04 | 32.62790 | -85.70996 | 38987 ft | 515 kts | 43° |
| 2026-05-07 22:05 | 32.67325 | -85.64404 | 38990 ft | 515 kts | 43° |
| 2026-05-07 22:05 | 32.71855 | -85.57815 | 38995 ft | 517 kts | 43° |
| 2026-05-07 22:06 | 32.76360 | -85.51244 | 38996 ft | 518 kts | 43° |
| 2026-05-07 22:06 | 32.80904 | -85.44598 | 38997 ft | 518 kts | 43° |
| 2026-05-07 22:07 | 32.85441 | -85.37949 | 38997 ft | 518 kts | 42° |
| 2026-05-07 22:07 | 32.89958 | -85.31309 | 38994 ft | 518 kts | 43° |
| 2026-05-07 22:08 | 32.94473 | -85.24649 | 38997 ft | 518 kts | 43° |
| 2026-05-07 22:08 | 32.98994 | -85.17981 | 38998 ft | 519 kts | 43° |
| 2026-05-07 22:09 | 33.03542 | -85.11271 | 38997 ft | 520 kts | 43° |
| 2026-05-07 22:09 | 33.08051 | -85.04608 | 39004 ft | 520 kts | 43° |
| 2026-05-07 22:10 | 33.12597 | -84.97897 | 39000 ft | 520 kts | 43° |
| 2026-05-07 22:10 | 33.17158 | -84.91171 | 38997 ft | 520 kts | 43° |
| 2026-05-07 22:11 | 33.21676 | -84.84472 | 38999 ft | 520 kts | 43° |
| 2026-05-07 22:11 | 33.26198 | -84.77745 | 38992 ft | 520 kts | 43° |
| 2026-05-07 22:12 | 33.30722 | -84.71003 | 38998 ft | 521 kts | 43° |
| 2026-05-07 22:12 | 33.35210 | -84.64289 | 38995 ft | 519 kts | 42° |
| 2026-05-07 22:13 | 33.39732 | -84.57536 | 38997 ft | 522 kts | 43° |
| 2026-05-07 22:13 | 33.44182 | -84.50856 | 38998 ft | 521 kts | 42° |
| 2026-05-07 22:14 | 33.48688 | -84.44088 | 38999 ft | 521 kts | 42° |
| 2026-05-07 22:14 | 33.53202 | -84.37299 | 38997 ft | 523 kts | 43° |
| 2026-05-07 22:15 | 33.57724 | -84.30459 | 38993 ft | 523 kts | 44° |
| 2026-05-07 22:15 | 33.62228 | -84.23618 | 38990 ft | 524 kts | 44° |
| 2026-05-07 22:16 | 33.66730 | -84.16792 | 38989 ft | 524 kts | 43° |
| 2026-05-07 22:16 | 33.71247 | -84.09947 | 38984 ft | 524 kts | 43° |
| 2026-05-07 22:17 | 33.75750 | -84.03104 | 38981 ft | 525 kts | 43° |
| 2026-05-07 22:17 | 33.80267 | -83.96227 | 38981 ft | 525 kts | 43° |
| 2026-05-07 22:18 | 33.87032 | -83.85897 | 38982 ft | 527 kts | 43° |
| 2026-05-07 22:19 | 33.91540 | -83.78923 | 38984 ft | 528 kts | 44° |
| 2026-05-07 22:19 | 33.95889 | -83.71849 | 38979 ft | 530 kts | 45° |
| 2026-05-07 22:20 | 34.00248 | -83.64734 | 38979 ft | 529 kts | 44° |
| 2026-05-07 22:20 | 34.04626 | -83.57604 | 38969 ft | 529 kts | 45° |
| 2026-05-07 22:21 | 34.08986 | -83.50474 | 38967 ft | 528 kts | 44° |
| 2026-05-07 22:21 | 34.13337 | -83.43390 | 38961 ft | 528 kts | 44° |
| 2026-05-07 22:22 | 34.17696 | -83.36292 | 38955 ft | 530 kts | 45° |
| 2026-05-07 22:22 | 34.22063 | -83.29099 | 38943 ft | 530 kts | 45° |
| 2026-05-07 22:23 | 34.26384 | -83.21954 | 38937 ft | 529 kts | 45° |
| 2026-05-07 22:23 | 34.30700 | -83.14822 | 38932 ft | 528 kts | 45° |
| 2026-05-07 22:24 | 34.35053 | -83.07634 | 38937 ft | 529 kts | 45° |
| 2026-05-07 22:24 | 34.39357 | -83.00504 | 38942 ft | 528 kts | 45° |
| 2026-05-07 22:25 | 34.43686 | -82.93317 | 38945 ft | 526 kts | 45° |
| 2026-05-07 22:25 | 34.47967 | -82.86208 | 38935 ft | 526 kts | 45° |
| 2026-05-07 22:26 | 34.52268 | -82.79049 | 38930 ft | 528 kts | 45° |
| 2026-05-07 22:26 | 34.56591 | -82.71829 | 38926 ft | 527 kts | 45° |
| 2026-05-07 22:27 | 34.60882 | -82.64644 | 38925 ft | 526 kts | 44° |
| 2026-05-07 22:27 | 34.65171 | -82.57464 | 38917 ft | 527 kts | 44° |
| 2026-05-07 22:28 | 34.69450 | -82.50285 | 38914 ft | 527 kts | 44° |
| 2026-05-07 22:28 | 34.73724 | -82.43090 | 38924 ft | 527 kts | 45° |
| 2026-05-07 22:29 | 34.77995 | -82.35888 | 38908 ft | 527 kts | 45° |
| 2026-05-07 22:29 | 34.82264 | -82.28647 | 38901 ft | 529 kts | 45° |
| 2026-05-07 22:30 | 34.86533 | -82.21390 | 38910 ft | 528 kts | 45° |
| 2026-05-07 22:30 | 34.90776 | -82.14184 | 38901 ft | 527 kts | 45° |
| 2026-05-07 22:31 | 34.95036 | -82.06944 | 38893 ft | 530 kts | 45° |
| 2026-05-07 22:31 | 34.99296 | -81.99678 | 38896 ft | 527 kts | 45° |
| 2026-05-07 22:32 | 35.03553 | -81.92410 | 38909 ft | 526 kts | 45° |
| 2026-05-07 22:32 | 35.07919 | -81.85311 | 38902 ft | 523 kts | 42° |
| 2026-05-07 22:33 | 35.12361 | -81.78240 | 38904 ft | 524 kts | 42° |
| 2026-05-07 22:33 | 35.16789 | -81.71162 | 38912 ft | 526 kts | 43° |
| 2026-05-07 22:34 | 35.21167 | -81.64084 | 38918 ft | 526 kts | 43° |
| 2026-05-07 22:34 | 35.25577 | -81.56936 | 38924 ft | 527 kts | 43° |
| 2026-05-07 22:35 | 35.29956 | -81.49802 | 38924 ft | 527 kts | 43° |
| 2026-05-07 22:35 | 35.34365 | -81.42620 | 38924 ft | 529 kts | 43° |
| 2026-05-07 22:36 | 35.38761 | -81.35429 | 38926 ft | 527 kts | 43° |
| 2026-05-07 22:36 | 35.43141 | -81.28233 | 38921 ft | 528 kts | 44° |
| 2026-05-07 22:37 | 35.47519 | -81.21024 | 38920 ft | 529 kts | 44° |
| 2026-05-07 22:37 | 35.51915 | -81.13802 | 38918 ft | 530 kts | 44° |
| 2026-05-07 22:38 | 35.56298 | -81.06568 | 38919 ft | 531 kts | 44° |
| 2026-05-07 22:38 | 35.60718 | -80.99277 | 38925 ft | 528 kts | 44° |
| 2026-05-07 22:39 | 35.65099 | -80.92059 | 38928 ft | 530 kts | 44° |
| 2026-05-07 22:39 | 35.69485 | -80.84792 | 38928 ft | 529 kts | 44° |
| 2026-05-07 22:40 | 35.73860 | -80.77533 | 38936 ft | 530 kts | 44° |
| 2026-05-07 22:40 | 35.78235 | -80.70252 | 38931 ft | 530 kts | 44° |
| 2026-05-07 22:41 | 35.82608 | -80.62952 | 38935 ft | 530 kts | 44° |
| 2026-05-07 22:41 | 35.86956 | -80.55682 | 38940 ft | 529 kts | 44° |
| 2026-05-07 22:42 | 35.91329 | -80.48357 | 38943 ft | 530 kts | 44° |
| 2026-05-07 22:42 | 35.95683 | -80.41039 | 38945 ft | 529 kts | 43° |
| 2026-05-07 22:43 | 36.00034 | -80.33739 | 38938 ft | 528 kts | 44° |
| 2026-05-07 22:43 | 36.04369 | -80.26455 | 38943 ft | 531 kts | 45° |
| 2026-05-07 22:44 | 36.08731 | -80.19087 | 38942 ft | 530 kts | 44° |
| 2026-05-07 22:44 | 36.13060 | -80.11804 | 38949 ft | 530 kts | 44° |
| 2026-05-07 22:45 | 36.17431 | -80.04448 | 38944 ft | 532 kts | 44° |
| 2026-05-07 22:45 | 36.21791 | -79.97077 | 38942 ft | 530 kts | 44° |
| 2026-05-07 22:46 | 36.26131 | -79.89737 | 38944 ft | 531 kts | 44° |
| 2026-05-07 22:46 | 36.30495 | -79.82313 | 38946 ft | 530 kts | 44° |
| 2026-05-07 22:47 | 36.34805 | -79.74966 | 38948 ft | 530 kts | 44° |
| 2026-05-07 22:47 | 36.39153 | -79.67543 | 38951 ft | 532 kts | 44° |
| 2026-05-07 22:48 | 36.43467 | -79.60159 | 38947 ft | 531 kts | 45° |
| 2026-05-07 22:48 | 36.47790 | -79.52738 | 38949 ft | 532 kts | 45° |
| 2026-05-07 22:49 | 36.52127 | -79.45287 | 38948 ft | 533 kts | 45° |
| 2026-05-07 22:49 | 36.56443 | -79.37840 | 38956 ft | 532 kts | 45° |
| 2026-05-07 22:50 | 36.60773 | -79.30352 | 38950 ft | 533 kts | 45° |
| 2026-05-07 22:50 | 36.65090 | -79.22845 | 38949 ft | 534 kts | 46° |
| 2026-05-07 22:51 | 36.69405 | -79.15349 | 38953 ft | 534 kts | 45° |
| 2026-05-07 22:51 | 36.73696 | -79.07888 | 38951 ft | 534 kts | 46° |
| 2026-05-07 22:52 | 36.78016 | -79.00359 | 38952 ft | 535 kts | 46° |
| 2026-05-07 22:52 | 36.82341 | -78.92801 | 38949 ft | 535 kts | 46° |
| 2026-05-07 22:53 | 36.86647 | -78.85237 | 38949 ft | 536 kts | 46° |
| 2026-05-07 22:53 | 36.90944 | -78.77645 | 38949 ft | 537 kts | 46° |
| 2026-05-07 22:54 | 36.95238 | -78.70041 | 38948 ft | 537 kts | 46° |
| 2026-05-07 22:54 | 36.99557 | -78.62373 | 38941 ft | 537 kts | 46° |
| 2026-05-07 22:55 | 37.03851 | -78.54741 | 38921 ft | 538 kts | 46° |
| 2026-05-07 22:55 | 37.08158 | -78.47051 | 38931 ft | 537 kts | 46° |
| 2026-05-07 22:56 | 37.12452 | -78.39396 | 38935 ft | 537 kts | 46° |
| 2026-05-07 22:56 | 37.16734 | -78.31751 | 38927 ft | 537 kts | 47° |
| 2026-05-07 22:57 | 37.20875 | -78.23996 | 38930 ft | 541 kts | 53° |
| 2026-05-07 22:57 | 37.24590 | -78.15747 | 38943 ft | 543 kts | 55° |
| 2026-05-07 22:58 | 37.28202 | -78.07472 | 38943 ft | 542 kts | 55° |
| 2026-05-07 22:58 | 37.31762 | -77.99377 | 38941 ft | 542 kts | 55° |
| 2026-05-07 22:59 | 37.35410 | -77.91125 | 38944 ft | 539 kts | 53° |
| 2026-05-07 22:59 | 37.39690 | -77.83551 | 38947 ft | 524 kts | 39° |
| 2026-05-07 23:00 | 37.44696 | -77.77670 | 38947 ft | 503 kts | 25° |
| 2026-05-07 23:00 | 37.50466 | -77.72923 | 38944 ft | 493 kts | 18° |
| 2026-05-07 23:01 | 37.56334 | -77.68358 | 38944 ft | 495 kts | 19° |
| 2026-05-07 23:01 | 37.62098 | -77.63728 | 38945 ft | 497 kts | 20° |
| 2026-05-07 23:02 | 37.67902 | -77.59018 | 38949 ft | 498 kts | 20° |
| 2026-05-07 23:02 | 37.73713 | -77.54297 | 38945 ft | 496 kts | 21° |
| 2026-05-07 23:03 | 37.79496 | -77.49612 | 38946 ft | 495 kts | 21° |
| 2026-05-07 23:03 | 37.85267 | -77.44925 | 38942 ft | 496 kts | 21° |
| 2026-05-07 23:04 | 37.90985 | -77.40255 | 38945 ft | 494 kts | 21° |
| 2026-05-07 23:04 | 37.96746 | -77.35543 | 38937 ft | 495 kts | 21° |
| 2026-05-07 23:05 | 38.02515 | -77.30817 | 38949 ft | 498 kts | 22° |
| 2026-05-07 23:05 | 38.08323 | -77.26048 | 38932 ft | 498 kts | 22° |
| 2026-05-07 23:06 | 38.14143 | -77.21280 | 38929 ft | 497 kts | 22° |
| 2026-05-07 23:06 | 38.19936 | -77.16528 | 38935 ft | 498 kts | 22° |
| 2026-05-07 23:07 | 38.25755 | -77.11734 | 38923 ft | 497 kts | 22° |
| 2026-05-07 23:07 | 38.31470 | -77.06773 | 38918 ft | 502 kts | 27° |
| 2026-05-07 23:08 | 38.37028 | -77.01440 | 38916 ft | 503 kts | 27° |
| 2026-05-07 23:08 | 38.42588 | -76.96047 | 38914 ft | 501 kts | 28° |
| 2026-05-07 23:09 | 38.48149 | -76.90671 | 38908 ft | 501 kts | 28° |
| 2026-05-07 23:09 | 38.53694 | -76.85305 | 38919 ft | 501 kts | 27° |
| 2026-05-07 23:10 | 38.59196 | -76.79975 | 38920 ft | 501 kts | 28° |
| 2026-05-07 23:10 | 38.62009 | -76.77246 | 38682 ft | 501 kts | 28° |
| 2026-05-07 23:10 | 38.64740 | -76.74590 | 38401 ft | 500 kts | 28° |
| 2026-05-07 23:10 | 38.67513 | -76.71887 | 38061 ft | 496 kts | 28° |
| 2026-05-07 23:11 | 38.70233 | -76.69231 | 37643 ft | 492 kts | 28° |
| 2026-05-07 23:11 | 38.72939 | -76.66592 | 37113 ft | 491 kts | 27° |
| 2026-05-07 23:11 | 38.75673 | -76.63928 | 36533 ft | 492 kts | 27° |
| 2026-05-07 23:11 | 38.78372 | -76.61304 | 35901 ft | 493 kts | 27° |
| 2026-05-07 23:12 | 38.81093 | -76.58653 | 35275 ft | 495 kts | 27° |
| 2026-05-07 23:12 | 38.83852 | -76.55962 | 34640 ft | 496 kts | 27° |
| 2026-05-07 23:12 | 38.86589 | -76.53282 | 33997 ft | 498 kts | 27° |
| 2026-05-07 23:12 | 38.89306 | -76.50621 | 33351 ft | 501 kts | 27° |
| 2026-05-07 23:13 | 38.92082 | -76.47898 | 32736 ft | 502 kts | 27° |
| 2026-05-07 23:13 | 38.94853 | -76.45176 | 32280 ft | 500 kts | 27° |
| 2026-05-07 23:13 | 38.97599 | -76.42469 | 31839 ft | 497 kts | 27° |
| 2026-05-07 23:13 | 39.00312 | -76.39793 | 31407 ft | 494 kts | 27° |
| 2026-05-07 23:14 | 39.03012 | -76.37061 | 30969 ft | 494 kts | 30° |
| 2026-05-07 23:14 | 39.05606 | -76.34167 | 30523 ft | 494 kts | 33° |
| 2026-05-07 23:14 | 39.08134 | -76.31215 | 30084 ft | 491 kts | 34° |
| 2026-05-07 23:14 | 39.10645 | -76.28243 | 29639 ft | 488 kts | 34° |
| 2026-05-07 23:15 | 39.13119 | -76.25328 | 29207 ft | 483 kts | 34° |
| 2026-05-07 23:15 | 39.15589 | -76.22442 | 28767 ft | 478 kts | 34° |
| 2026-05-07 23:15 | 39.18012 | -76.19609 | 28357 ft | 474 kts | 34° |
| 2026-05-07 23:15 | 39.20454 | -76.16750 | 27928 ft | 469 kts | 34° |
| 2026-05-07 23:16 | 39.22839 | -76.13959 | 27516 ft | 465 kts | 34° |
| 2026-05-07 23:16 | 39.25240 | -76.11142 | 27103 ft | 461 kts | 34° |
| 2026-05-07 23:16 | 39.27581 | -76.08395 | 26785 ft | 454 kts | 34° |
| 2026-05-07 23:16 | 39.29912 | -76.05657 | 26719 ft | 449 kts | 34° |
| 2026-05-07 23:17 | 39.32227 | -76.02948 | 26283 ft | 447 kts | 35° |
| 2026-05-07 23:17 | 39.34490 | -76.00291 | 25873 ft | 445 kts | 35° |
| 2026-05-07 23:17 | 39.36764 | -75.97613 | 25544 ft | 439 kts | 35° |
| 2026-05-07 23:17 | 39.39000 | -75.94974 | 25208 ft | 434 kts | 35° |
| 2026-05-07 23:18 | 39.41215 | -75.92361 | 24832 ft | 430 kts | 35° |
| 2026-05-07 23:18 | 39.43442 | -75.89732 | 24435 ft | 427 kts | 35° |
| 2026-05-07 23:18 | 39.45610 | -75.87173 | 24044 ft | 425 kts | 35° |
| 2026-05-07 23:18 | 39.47762 | -75.84624 | 23648 ft | 422 kts | 36° |
| 2026-05-07 23:19 | 39.49929 | -75.82057 | 23269 ft | 419 kts | 36° |
| 2026-05-07 23:19 | 39.52058 | -75.79533 | 22875 ft | 417 kts | 36° |
| 2026-05-07 23:19 | 39.54193 | -75.77004 | 22459 ft | 415 kts | 36° |
| 2026-05-07 23:19 | 39.56295 | -75.74504 | 22067 ft | 413 kts | 36° |
| 2026-05-07 23:20 | 39.58401 | -75.71999 | 21674 ft | 411 kts | 36° |
| 2026-05-07 23:20 | 39.60517 | -75.69479 | 21265 ft | 409 kts | 36° |
| 2026-05-07 23:20 | 39.62583 | -75.67020 | 20886 ft | 407 kts | 37° |
| 2026-05-07 23:20 | 39.64679 | -75.64523 | 20484 ft | 406 kts | 37° |
| 2026-05-07 23:21 | 39.66721 | -75.62083 | 20106 ft | 404 kts | 37° |
| 2026-05-07 23:21 | 39.68797 | -75.59605 | 19708 ft | 403 kts | 37° |
| 2026-05-07 23:21 | 39.70858 | -75.57137 | 19308 ft | 402 kts | 37° |
| 2026-05-07 23:21 | 39.72896 | -75.54687 | 18919 ft | 400 kts | 38° |
| 2026-05-07 23:22 | 39.74920 | -75.52249 | 18513 ft | 400 kts | 38° |
| 2026-05-07 23:22 | 39.76972 | -75.49776 | 18105 ft | 399 kts | 38° |
| 2026-05-07 23:22 | 39.78969 | -75.47365 | 17708 ft | 398 kts | 38° |
| 2026-05-07 23:22 | 39.80992 | -75.44919 | 17304 ft | 397 kts | 38° |
| 2026-05-07 23:23 | 39.83007 | -75.42481 | 16906 ft | 395 kts | 38° |
| 2026-05-07 23:23 | 39.85020 | -75.40041 | 16511 ft | 394 kts | 38° |
| 2026-05-07 23:23 | 39.87011 | -75.37631 | 16115 ft | 392 kts | 38° |
| 2026-05-07 23:23 | 39.89013 | -75.35198 | 15716 ft | 390 kts | 38° |
| 2026-05-07 23:24 | 39.90975 | -75.32809 | 15320 ft | 388 kts | 39° |
| 2026-05-07 23:24 | 39.92932 | -75.30416 | 14933 ft | 386 kts | 39° |
| 2026-05-07 23:24 | 39.94901 | -75.28014 | 14540 ft | 384 kts | 39° |
| 2026-05-07 23:24 | 39.96844 | -75.25648 | 14155 ft | 381 kts | 38° |
| 2026-05-07 23:25 | 39.98774 | -75.23301 | 13769 ft | 379 kts | 39° |
| 2026-05-07 23:25 | 40.00694 | -75.20964 | 13393 ft | 376 kts | 39° |
| 2026-05-07 23:25 | 40.02570 | -75.18677 | 13036 ft | 373 kts | 38° |
| 2026-05-07 23:25 | 40.04470 | -75.16358 | 12660 ft | 370 kts | 38° |
| 2026-05-07 23:26 | 40.06343 | -75.14072 | 12289 ft | 366 kts | 38° |
| 2026-05-07 23:26 | 40.08187 | -75.11821 | 11919 ft | 363 kts | 38° |
| 2026-05-07 23:26 | 40.10009 | -75.09592 | 11629 ft | 357 kts | 38° |
| 2026-05-07 23:26 | 40.11813 | -75.07394 | 11214 ft | 355 kts | 38° |
| 2026-05-07 23:27 | 40.15320 | -75.03118 | 10858 ft | 336 kts | 38° |
| 2026-05-07 23:27 | 40.17023 | -75.01037 | 10465 ft | 335 kts | 38° |
| 2026-05-07 23:27 | 40.18719 | -74.98962 | 10100 ft | 333 kts | 38° |
| 2026-05-07 23:28 | 40.20398 | -74.96897 | 9866 ft | 325 kts | 38° |
| 2026-05-07 23:28 | 40.22021 | -74.94900 | 9629 ft | 319 kts | 38° |
| 2026-05-07 23:28 | 40.23615 | -74.92941 | 9344 ft | 314 kts | 38° |
| 2026-05-07 23:28 | 40.25200 | -74.90981 | 9059 ft | 310 kts | 40° |
| 2026-05-07 23:29 | 40.26683 | -74.88978 | 8784 ft | 307 kts | 42° |
| 2026-05-07 23:29 | 40.28128 | -74.86948 | 8515 ft | 303 kts | 43° |
| 2026-05-07 23:29 | 40.29567 | -74.84918 | 8251 ft | 298 kts | 43° |
| 2026-05-07 23:29 | 40.30973 | -74.82936 | 8126 ft | 292 kts | 43° |
| 2026-05-07 23:30 | 40.32361 | -74.80984 | 8076 ft | 291 kts | 43° |
| 2026-05-07 23:30 | 40.33721 | -74.79069 | 8032 ft | 283 kts | 43° |
| 2026-05-07 23:30 | 40.35029 | -74.77224 | 8019 ft | 269 kts | 43° |
| 2026-05-07 23:30 | 40.36266 | -74.75478 | 8015 ft | 256 kts | 42° |
| 2026-05-07 23:31 | 40.37462 | -74.73791 | 8023 ft | 247 kts | 42° |
| 2026-05-07 23:31 | 40.38633 | -74.72145 | 8045 ft | 247 kts | 42° |
| 2026-05-07 23:31 | 40.39796 | -74.70512 | 8050 ft | 246 kts | 43° |
| 2026-05-07 23:31 | 40.40933 | -74.68839 | 8022 ft | 248 kts | 51° |
| 2026-05-07 23:32 | 40.41687 | -74.66806 | 8019 ft | 252 kts | 68° |
| 2026-05-07 23:32 | 40.42215 | -74.64597 | 8030 ft | 253 kts | 70° |
| 2026-05-07 23:32 | 40.42720 | -74.62380 | 8040 ft | 253 kts | 69° |
| 2026-05-07 23:32 | 40.43248 | -74.60201 | 8021 ft | 252 kts | 69° |
| 2026-05-07 23:33 | 40.43804 | -74.58032 | 7786 ft | 249 kts | 68° |
| 2026-05-07 23:33 | 40.44376 | -74.55883 | 7489 ft | 249 kts | 68° |
| 2026-05-07 23:33 | 40.44952 | -74.53751 | 7284 ft | 247 kts | 67° |
| 2026-05-07 23:33 | 40.45517 | -74.51674 | 7025 ft | 245 kts | 67° |
| 2026-05-07 23:34 | 40.46096 | -74.49550 | 6838 ft | 243 kts | 67° |
| 2026-05-07 23:34 | 40.46658 | -74.47488 | 6590 ft | 241 kts | 67° |
| 2026-05-07 23:34 | 40.47220 | -74.45431 | 6354 ft | 239 kts | 68° |
| 2026-05-07 23:34 | 40.47779 | -74.43378 | 6067 ft | 240 kts | 67° |
| 2026-05-07 23:35 | 40.48349 | -74.41288 | 5623 ft | 247 kts | 67° |
| 2026-05-07 23:35 | 40.48915 | -74.39146 | 5116 ft | 255 kts | 69° |
| 2026-05-07 23:35 | 40.49447 | -74.36907 | 4661 ft | 261 kts | 70° |
| 2026-05-07 23:35 | 40.49979 | -74.34596 | 4250 ft | 264 kts | 71° |
| 2026-05-07 23:36 | 40.50501 | -74.32321 | 3960 ft | 259 kts | 71° |
| 2026-05-07 23:36 | 40.51009 | -74.30115 | 3607 ft | 249 kts | 70° |
| 2026-05-07 23:36 | 40.51717 | -74.28133 | 3245 ft | 234 kts | 46° |
| 2026-05-07 23:36 | 40.52990 | -74.26964 | 2894 ft | 218 kts | 13° |
| 2026-05-07 23:37 | 40.54444 | -74.26938 | 2581 ft | 204 kts | 339° |
| 2026-05-07 23:37 | 40.55564 | -74.28030 | 2530 ft | 204 kts | 307° |
| 2026-05-07 23:37 | 40.56286 | -74.29652 | 2524 ft | 209 kts | 291° |
| 2026-05-07 23:37 | 40.56363 | -74.31551 | 2512 ft | 213 kts | 256° |
| 2026-05-07 23:38 | 40.55700 | -74.33324 | 2518 ft | 218 kts | 241° |
| 2026-05-07 23:38 | 40.54852 | -74.34975 | 2514 ft | 220 kts | 238° |
| 2026-05-07 23:38 | 40.53956 | -74.36616 | 2510 ft | 221 kts | 233° |
| 2026-05-07 23:38 | 40.52728 | -74.37787 | 2499 ft | 225 kts | 200° |
| 2026-05-07 23:39 | 40.51169 | -74.37933 | 2510 ft | 228 kts | 174° |
| 2026-05-07 23:39 | 40.49589 | -74.37553 | 2509 ft | 231 kts | 169° |
| 2026-05-07 23:39 | 40.48049 | -74.36983 | 2499 ft | 231 kts | 153° |
| 2026-05-07 23:39 | 40.46866 | -74.35577 | 2499 ft | 228 kts | 118° |
| 2026-05-07 23:40 | 40.46478 | -74.33612 | 2504 ft | 224 kts | 84° |
| 2026-05-07 23:40 | 40.46912 | -74.31709 | 2504 ft | 220 kts | 56° |
| 2026-05-07 23:40 | 40.47919 | -74.30218 | 2511 ft | 216 kts | 35° |
| 2026-05-07 23:40 | 40.49185 | -74.29166 | 2512 ft | 215 kts | 25° |
| 2026-05-07 23:41 | 40.50527 | -74.28321 | 2510 ft | 213 kts | 21° |
| 2026-05-07 23:41 | 40.51880 | -74.27512 | 2507 ft | 213 kts | 22° |
| 2026-05-07 23:41 | 40.53216 | -74.26692 | 2508 ft | 213 kts | 23° |
| 2026-05-07 23:41 | 40.54544 | -74.25855 | 2508 ft | 212 kts | 23° |
| 2026-05-07 23:42 | 40.55879 | -74.25002 | 2485 ft | 213 kts | 23° |
| 2026-05-07 23:42 | 40.57209 | -74.24149 | 2289 ft | 213 kts | 23° |
| 2026-05-07 23:42 | 40.58515 | -74.23312 | 2012 ft | 203 kts | 23° |
| 2026-05-07 23:42 | 40.59765 | -74.22512 | 1743 ft | 194 kts | 22° |
| 2026-05-07 23:43 | 40.60929 | -74.21768 | 1574 ft | 174 kts | 23° |
| 2026-05-07 23:43 | 40.61972 | -74.21101 | 1356 ft | 158 kts | 22° |
| 2026-05-07 23:43 | 40.62910 | -74.20505 | 1150 ft | 145 kts | 22° |
| 2026-05-07 23:43 | 40.63793 | -74.19943 | 939 ft | 133 kts | 22° |
| 2026-05-07 23:44 | 40.64588 | -74.19437 | 746 ft | 124 kts | 22° |
| 2026-05-07 23:44 | 40.65361 | -74.18948 | 591 ft | 122 kts | 22° |
| 2026-05-07 23:44 | 40.66125 | -74.18465 | 445 ft | 121 kts | 22° |
| 2026-05-07 23:44 | 40.66890 | -74.17982 | 279 ft | 121 kts | 24° |
| 2026-05-07 23:45 | 40.67636 | -74.17499 | 107 ft | 119 kts | 23° |
| 2026-05-07 23:45 | 40.68377 | -74.17046 | 17 ft | 110 kts | 25° |
| 2026-05-07 23:45 | 40.68917 | -74.16698 | 17 ft | 61 kts | 25° |
| 2026-05-07 23:45 | 40.69154 | -74.16595 | 16 ft | 11 kts | 10° |
| 2026-05-07 23:46 | 40.69237 | -74.16591 | 16 ft | 22 kts | 356° |
| 2026-05-07 23:46 | 40.69314 | -74.16602 | 16 ft | 11 kts | 352° |
| 2026-05-07 23:46 | 40.69396 | -74.16624 | 16 ft | 13 kts | 324° |
| 2026-05-07 23:46 | 40.69427 | -74.16693 | 16 ft | 19 kts | 296° |
| 2026-05-07 23:47 | 40.69492 | -74.16880 | 16 ft | 0 kts | 297° |
| 2026-05-07 23:47 | 40.69493 | -74.16885 | 16 ft | 2 kts | 273° |
| 2026-05-07 23:47 | 40.69436 | -74.16908 | 16 ft | 16 kts | 191° |
| 2026-05-07 23:47 | 40.69292 | -74.16999 | 16 ft | 29 kts | 207° |
| 2026-05-07 23:48 | 40.69259 | -74.17195 | 16 ft | 22 kts | 307° |
| 2026-05-07 23:48 | 40.69326 | -74.17356 | 16 ft | 20 kts | 289° |
| 2026-05-07 23:48 | 40.69376 | -74.17487 | 16 ft | 7 kts | 327° |
| 2026-05-07 23:48 | 40.69400 | -74.17496 | 16 ft | 5 kts | 14° |
| 2026-05-07 23:49 | 40.69435 | -74.17484 | 16 ft | 0 kts | 18° |